sensor_id;sensor_type;location;lat;lon;timestamp;P1;durP1;ratioP1;P2;durP2;ratioP2
21503;SDS011;10913;51.992;9.228;2023-09-19T00:01:27;2.28;;;1.73;;
21503;SDS011;10913;51.992;9.228;2023-09-19T00:03:55;2.75;;;1.70;;
21503;SDS011;10913;51.992;9.228;2023-09-19T00:06:22;2.42;;;1.67;;
21503;SDS011;10913;51.992;9.228;2023-09-19T00:08:51;3.33;;;2.20;;
21503;SDS011;10913;51.992;9.228;2023-09-19T00:11:17;3.53;;;2.10;;
21503;SDS011;10913;51.992;9.228;2023-09-19T00:13:42;3.55;;;1.92;;
21503;SDS011;10913;51.992;9.228;2023-09-19T00:16:08;4.45;;;2.30;;
21503;SDS011;10913;51.992;9.228;2023-09-19T00:18:36;3.50;;;2.08;;
21503;SDS011;10913;51.992;9.228;2023-09-19T00:21:02;3.20;;;2.30;;
21503;SDS011;10913;51.992;9.228;2023-09-19T00:23:29;3.67;;;2.42;;
21503;SDS011;10913;51.992;9.228;2023-09-19T00:25:58;3.47;;;2.20;;
21503;SDS011;10913;51.992;9.228;2023-09-19T00:28:24;4.00;;;2.72;;
21503;SDS011;10913;51.992;9.228;2023-09-19T00:30:49;2.88;;;2.58;;
21503;SDS011;10913;51.992;9.228;2023-09-19T00:33:19;7.10;;;3.25;;
21503;SDS011;10913;51.992;9.228;2023-09-19T00:38:14;5.43;;;2.70;;
21503;SDS011;10913;51.992;9.228;2023-09-19T00:40:46;3.70;;;2.85;;
21503;SDS011;10913;51.992;9.228;2023-09-19T00:43:17;3.50;;;2.63;;
21503;SDS011;10913;51.992;9.228;2023-09-19T00:45:43;6.05;;;3.03;;
21503;SDS011;10913;51.992;9.228;2023-09-19T00:48:10;3.92;;;2.70;;
21503;SDS011;10913;51.992;9.228;2023-09-19T00:50:37;5.47;;;3.08;;
21503;SDS011;10913;51.992;9.228;2023-09-19T00:53:07;4.13;;;2.33;;
21503;SDS011;10913;51.992;9.228;2023-09-19T00:55:38;3.47;;;2.47;;
21503;SDS011;10913;51.992;9.228;2023-09-19T00:58:04;3.25;;;2.35;;
21503;SDS011;10913;51.992;9.228;2023-09-19T01:00:31;5.95;;;2.40;;
21503;SDS011;10913;51.992;9.228;2023-09-19T01:02:59;4.78;;;2.25;;
21503;SDS011;10913;51.992;9.228;2023-09-19T01:05:26;3.95;;;2.13;;
21503;SDS011;10913;51.992;9.228;2023-09-19T01:07:52;3.60;;;2.17;;
21503;SDS011;10913;51.992;9.228;2023-09-19T01:10:18;4.15;;;2.28;;
21503;SDS011;10913;51.992;9.228;2023-09-19T01:12:52;4.47;;;2.30;;
21503;SDS011;10913;51.992;9.228;2023-09-19T01:32:11;4.47;;;2.70;;
21503;SDS011;10913;51.992;9.228;2023-09-19T01:34:44;4.38;;;2.50;;
21503;SDS011;10913;51.992;9.228;2023-09-19T01:37:18;4.60;;;2.67;;
21503;SDS011;10913;51.992;9.228;2023-09-19T01:39:50;6.30;;;3.10;;
21503;SDS011;10913;51.992;9.228;2023-09-19T01:45:32;5.70;;;2.90;;
21503;SDS011;10913;51.992;9.228;2023-09-19T01:51:05;5.32;;;2.45;;
21503;SDS011;10913;51.992;9.228;2023-09-19T01:56:30;5.40;;;2.85;;
21503;SDS011;10913;51.992;9.228;2023-09-19T01:58:59;5.80;;;2.55;;
21503;SDS011;10913;51.992;9.228;2023-09-19T02:01:29;3.78;;;2.60;;
21503;SDS011;10913;51.992;9.228;2023-09-19T02:03:55;7.20;;;2.63;;
21503;SDS011;10913;51.992;9.228;2023-09-19T02:06:21;6.72;;;3.08;;
21503;SDS011;10913;51.992;9.228;2023-09-19T02:08:46;4.40;;;3.03;;
21503;SDS011;10913;51.992;9.228;2023-09-19T02:11:12;6.07;;;3.40;;
21503;SDS011;10913;51.992;9.228;2023-09-19T02:13:38;3.63;;;2.95;;
21503;SDS011;10913;51.992;9.228;2023-09-19T02:16:04;5.78;;;3.60;;
21503;SDS011;10913;51.992;9.228;2023-09-19T02:18:30;6.68;;;3.80;;
21503;SDS011;10913;51.992;9.228;2023-09-19T02:20:56;4.78;;;3.10;;
21503;SDS011;10913;51.992;9.228;2023-09-19T02:23:23;6.93;;;3.55;;
21503;SDS011;10913;51.992;9.228;2023-09-19T02:25:52;6.90;;;2.90;;
21503;SDS011;10913;51.992;9.228;2023-09-19T02:28:28;5.45;;;2.83;;
21503;SDS011;10913;51.992;9.228;2023-09-19T02:31:00;5.82;;;3.38;;
21503;SDS011;10913;51.992;9.228;2023-09-19T02:33:26;5.78;;;3.60;;
21503;SDS011;10913;51.992;9.228;2023-09-19T02:35:55;7.95;;;4.35;;
21503;SDS011;10913;51.992;9.228;2023-09-19T02:38:27;8.20;;;3.75;;
21503;SDS011;10913;51.992;9.228;2023-09-19T02:40:53;7.05;;;4.28;;
21503;SDS011;10913;51.992;9.228;2023-09-19T02:43:20;9.10;;;4.47;;
21503;SDS011;10913;51.992;9.228;2023-09-19T02:45:46;7.85;;;4.60;;
21503;SDS011;10913;51.992;9.228;2023-09-19T02:48:11;9.75;;;4.78;;
21503;SDS011;10913;51.992;9.228;2023-09-19T02:50:37;9.63;;;4.60;;
21503;SDS011;10913;51.992;9.228;2023-09-19T02:53:05;7.45;;;4.68;;
21503;SDS011;10913;51.992;9.228;2023-09-19T02:55:31;6.15;;;4.78;;
21503;SDS011;10913;51.992;9.228;2023-09-19T02:57:57;9.52;;;4.45;;
21503;SDS011;10913;51.992;9.228;2023-09-19T03:00:23;9.77;;;4.75;;
21503;SDS011;10913;51.992;9.228;2023-09-19T03:02:55;7.90;;;4.57;;
21503;SDS011;10913;51.992;9.228;2023-09-19T03:05:22;8.70;;;4.70;;
21503;SDS011;10913;51.992;9.228;2023-09-19T03:07:51;10.85;;;4.60;;
21503;SDS011;10913;51.992;9.228;2023-09-19T03:10:20;7.53;;;4.25;;
21503;SDS011;10913;51.992;9.228;2023-09-19T03:12:46;9.38;;;4.22;;
21503;SDS011;10913;51.992;9.228;2023-09-19T03:15:14;8.02;;;4.78;;
21503;SDS011;10913;51.992;9.228;2023-09-19T03:17:46;10.20;;;4.68;;
21503;SDS011;10913;51.992;9.228;2023-09-19T03:20:13;8.05;;;4.07;;
21503;SDS011;10913;51.992;9.228;2023-09-19T03:22:42;7.70;;;4.40;;
21503;SDS011;10913;51.992;9.228;2023-09-19T03:25:08;7.10;;;4.22;;
21503;SDS011;10913;51.992;9.228;2023-09-19T03:27:34;6.93;;;4.05;;
21503;SDS011;10913;51.992;9.228;2023-09-19T03:30:00;7.53;;;4.57;;
21503;SDS011;10913;51.992;9.228;2023-09-19T03:32:26;7.85;;;4.15;;
21503;SDS011;10913;51.992;9.228;2023-09-19T03:34:51;6.55;;;4.22;;
21503;SDS011;10913;51.992;9.228;2023-09-19T03:37:17;7.97;;;4.78;;
21503;SDS011;10913;51.992;9.228;2023-09-19T03:39:43;9.00;;;4.15;;
21503;SDS011;10913;51.992;9.228;2023-09-19T03:42:08;7.82;;;4.57;;
21503;SDS011;10913;51.992;9.228;2023-09-19T03:44:34;7.40;;;4.35;;
21503;SDS011;10913;51.992;9.228;2023-09-19T03:46:59;6.53;;;3.92;;
21503;SDS011;10913;51.992;9.228;2023-09-19T03:49:24;9.93;;;4.22;;
21503;SDS011;10913;51.992;9.228;2023-09-19T03:51:50;9.02;;;4.90;;
21503;SDS011;10913;51.992;9.228;2023-09-19T03:54:15;6.35;;;4.20;;
21503;SDS011;10913;51.992;9.228;2023-09-19T03:56:42;6.38;;;4.35;;
21503;SDS011;10913;51.992;9.228;2023-09-19T03:59:08;12.20;;;4.82;;
21503;SDS011;10913;51.992;9.228;2023-09-19T04:01:34;9.38;;;4.35;;
21503;SDS011;10913;51.992;9.228;2023-09-19T04:04:00;9.43;;;4.45;;
21503;SDS011;10913;51.992;9.228;2023-09-19T04:06:33;8.02;;;4.32;;
21503;SDS011;10913;51.992;9.228;2023-09-19T04:09:04;9.35;;;4.25;;
21503;SDS011;10913;51.992;9.228;2023-09-19T04:11:31;11.27;;;4.65;;
21503;SDS011;10913;51.992;9.228;2023-09-19T04:13:58;9.30;;;4.35;;
21503;SDS011;10913;51.992;9.228;2023-09-19T04:16:23;7.65;;;4.47;;
21503;SDS011;10913;51.992;9.228;2023-09-19T04:18:48;8.15;;;4.40;;
21503;SDS011;10913;51.992;9.228;2023-09-19T04:21:14;12.48;;;4.55;;
21503;SDS011;10913;51.992;9.228;2023-09-19T04:23:39;10.52;;;4.97;;
21503;SDS011;10913;51.992;9.228;2023-09-19T04:26:04;6.47;;;4.25;;
21503;SDS011;10913;51.992;9.228;2023-09-19T04:28:31;8.82;;;4.45;;
21503;SDS011;10913;51.992;9.228;2023-09-19T04:30:57;9.80;;;4.55;;
21503;SDS011;10913;51.992;9.228;2023-09-19T04:33:23;8.80;;;4.93;;
21503;SDS011;10913;51.992;9.228;2023-09-19T04:35:50;8.80;;;4.85;;
21503;SDS011;10913;51.992;9.228;2023-09-19T04:38:16;10.85;;;4.93;;
21503;SDS011;10913;51.992;9.228;2023-09-19T04:40:42;12.65;;;4.55;;
21503;SDS011;10913;51.992;9.228;2023-09-19T04:43:08;8.32;;;4.20;;
21503;SDS011;10913;51.992;9.228;2023-09-19T04:45:34;10.55;;;4.95;;
21503;SDS011;10913;51.992;9.228;2023-09-19T04:47:59;8.48;;;4.03;;
21503;SDS011;10913;51.992;9.228;2023-09-19T04:50:25;7.50;;;3.50;;
21503;SDS011;10913;51.992;9.228;2023-09-19T04:52:52;10.05;;;3.40;;
21503;SDS011;10913;51.992;9.228;2023-09-19T04:55:18;10.27;;;3.45;;
21503;SDS011;10913;51.992;9.228;2023-09-19T05:00:11;6.47;;;2.70;;
21503;SDS011;10913;51.992;9.228;2023-09-19T05:02:39;8.35;;;3.30;;
21503;SDS011;10913;51.992;9.228;2023-09-19T05:05:05;9.00;;;2.83;;
21503;SDS011;10913;51.992;9.228;2023-09-19T05:07:33;8.23;;;2.40;;
21503;SDS011;10913;51.992;9.228;2023-09-19T05:09:59;6.72;;;2.50;;
21503;SDS011;10913;51.992;9.228;2023-09-19T05:12:25;9.88;;;2.67;;
21503;SDS011;10913;51.992;9.228;2023-09-19T05:14:52;9.73;;;2.70;;
21503;SDS011;10913;51.992;9.228;2023-09-19T05:17:17;7.90;;;2.58;;
21503;SDS011;10913;51.992;9.228;2023-09-19T05:19:43;9.63;;;2.80;;
21503;SDS011;10913;51.992;9.228;2023-09-19T05:22:08;6.07;;;2.22;;
21503;SDS011;10913;51.992;9.228;2023-09-19T05:24:33;7.63;;;2.50;;
21503;SDS011;10913;51.992;9.228;2023-09-19T05:26:59;6.57;;;2.35;;
21503;SDS011;10913;51.992;9.228;2023-09-19T05:29:24;8.82;;;2.40;;
21503;SDS011;10913;51.992;9.228;2023-09-19T05:31:50;10.13;;;2.50;;
21503;SDS011;10913;51.992;9.228;2023-09-19T05:34:15;7.25;;;2.40;;
21503;SDS011;10913;51.992;9.228;2023-09-19T05:36:40;8.30;;;2.30;;
21503;SDS011;10913;51.992;9.228;2023-09-19T05:39:06;5.82;;;2.17;;
21503;SDS011;10913;51.992;9.228;2023-09-19T05:41:34;9.35;;;2.83;;
21503;SDS011;10913;51.992;9.228;2023-09-19T05:44:01;7.28;;;2.50;;
21503;SDS011;10913;51.992;9.228;2023-09-19T05:46:27;8.73;;;2.40;;
21503;SDS011;10913;51.992;9.228;2023-09-19T05:48:54;9.95;;;2.50;;
21503;SDS011;10913;51.992;9.228;2023-09-19T05:51:21;8.30;;;3.00;;
21503;SDS011;10913;51.992;9.228;2023-09-19T05:53:47;6.70;;;2.35;;
21503;SDS011;10913;51.992;9.228;2023-09-19T05:56:13;6.88;;;2.30;;
21503;SDS011;10913;51.992;9.228;2023-09-19T05:58:39;9.50;;;2.47;;
21503;SDS011;10913;51.992;9.228;2023-09-19T06:01:08;8.77;;;2.28;;
21503;SDS011;10913;51.992;9.228;2023-09-19T06:03:34;4.63;;;2.40;;
21503;SDS011;10913;51.992;9.228;2023-09-19T06:06:00;8.20;;;2.40;;
21503;SDS011;10913;51.992;9.228;2023-09-19T06:08:26;8.73;;;2.33;;
21503;SDS011;10913;51.992;9.228;2023-09-19T06:10:51;7.30;;;2.40;;
21503;SDS011;10913;51.992;9.228;2023-09-19T06:13:17;5.50;;;2.30;;
21503;SDS011;10913;51.992;9.228;2023-09-19T06:15:43;7.03;;;2.67;;
21503;SDS011;10913;51.992;9.228;2023-09-19T06:18:10;9.40;;;2.92;;
21503;SDS011;10913;51.992;9.228;2023-09-19T06:20:40;6.82;;;2.08;;
21503;SDS011;10913;51.992;9.228;2023-09-19T06:23:09;5.65;;;2.03;;
21503;SDS011;10913;51.992;9.228;2023-09-19T06:25:34;8.88;;;2.58;;
21503;SDS011;10913;51.992;9.228;2023-09-19T06:28:00;6.75;;;2.60;;
21503;SDS011;10913;51.992;9.228;2023-09-19T06:30:30;6.43;;;2.40;;
21503;SDS011;10913;51.992;9.228;2023-09-19T06:32:59;10.18;;;2.30;;
21503;SDS011;10913;51.992;9.228;2023-09-19T06:35:28;7.05;;;2.28;;
21503;SDS011;10913;51.992;9.228;2023-09-19T06:37:57;6.97;;;2.10;;
21503;SDS011;10913;51.992;9.228;2023-09-19T06:40:23;6.30;;;2.20;;
21503;SDS011;10913;51.992;9.228;2023-09-19T06:42:52;6.57;;;2.33;;
21503;SDS011;10913;51.992;9.228;2023-09-19T06:45:20;7.18;;;1.98;;
21503;SDS011;10913;51.992;9.228;2023-09-19T06:47:47;5.47;;;2.00;;
21503;SDS011;10913;51.992;9.228;2023-09-19T06:50:16;5.47;;;2.40;;
21503;SDS011;10913;51.992;9.228;2023-09-19T06:55:20;6.80;;;2.17;;
21503;SDS011;10913;51.992;9.228;2023-09-19T06:57:48;6.38;;;2.40;;
21503;SDS011;10913;51.992;9.228;2023-09-19T07:00:14;6.47;;;2.35;;
21503;SDS011;10913;51.992;9.228;2023-09-19T07:02:44;4.68;;;1.80;;
21503;SDS011;10913;51.992;9.228;2023-09-19T07:05:09;4.60;;;2.20;;
21503;SDS011;10913;51.992;9.228;2023-09-19T07:07:35;4.75;;;2.00;;
21503;SDS011;10913;51.992;9.228;2023-09-19T07:10:01;4.88;;;1.85;;
21503;SDS011;10913;51.992;9.228;2023-09-19T07:12:27;5.75;;;2.10;;
21503;SDS011;10913;51.992;9.228;2023-09-19T07:14:52;5.05;;;2.10;;
21503;SDS011;10913;51.992;9.228;2023-09-19T07:17:18;5.60;;;2.10;;
21503;SDS011;10913;51.992;9.228;2023-09-19T07:19:44;4.63;;;1.95;;
21503;SDS011;10913;51.992;9.228;2023-09-19T07:22:09;5.57;;;2.10;;
21503;SDS011;10913;51.992;9.228;2023-09-19T07:24:35;6.25;;;2.13;;
21503;SDS011;10913;51.992;9.228;2023-09-19T07:27:01;4.90;;;1.85;;
21503;SDS011;10913;51.992;9.228;2023-09-19T07:29:27;5.03;;;2.00;;
21503;SDS011;10913;51.992;9.228;2023-09-19T07:31:52;4.50;;;1.77;;
21503;SDS011;10913;51.992;9.228;2023-09-19T07:34:18;7.00;;;2.00;;
21503;SDS011;10913;51.992;9.228;2023-09-19T07:36:44;6.10;;;2.20;;
21503;SDS011;10913;51.992;9.228;2023-09-19T07:39:12;5.38;;;2.15;;
21503;SDS011;10913;51.992;9.228;2023-09-19T07:41:37;6.38;;;2.15;;
21503;SDS011;10913;51.992;9.228;2023-09-19T07:44:03;7.50;;;2.20;;
21503;SDS011;10913;51.992;9.228;2023-09-19T07:46:28;6.30;;;2.17;;
21503;SDS011;10913;51.992;9.228;2023-09-19T07:48:56;5.32;;;1.83;;
21503;SDS011;10913;51.992;9.228;2023-09-19T07:51:22;8.30;;;2.35;;
21503;SDS011;10913;51.992;9.228;2023-09-19T07:53:48;3.95;;;1.83;;
21503;SDS011;10913;51.992;9.228;2023-09-19T07:56:13;6.78;;;2.47;;
21503;SDS011;10913;51.992;9.228;2023-09-19T07:58:39;3.72;;;1.60;;
21503;SDS011;10913;51.992;9.228;2023-09-19T08:01:08;4.90;;;1.95;;
21503;SDS011;10913;51.992;9.228;2023-09-19T08:03:35;5.43;;;1.70;;
21503;SDS011;10913;51.992;9.228;2023-09-19T08:06:05;5.28;;;1.90;;
21503;SDS011;10913;51.992;9.228;2023-09-19T08:08:31;5.28;;;2.05;;
21503;SDS011;10913;51.992;9.228;2023-09-19T08:10:57;8.40;;;2.22;;
21503;SDS011;10913;51.992;9.228;2023-09-19T08:13:23;5.68;;;2.08;;
21503;SDS011;10913;51.992;9.228;2023-09-19T08:15:49;6.90;;;1.98;;
21503;SDS011;10913;51.992;9.228;2023-09-19T08:18:15;7.07;;;2.13;;
21503;SDS011;10913;51.992;9.228;2023-09-19T08:20:42;5.13;;;1.80;;
21503;SDS011;10913;51.992;9.228;2023-09-19T08:23:07;3.28;;;1.70;;
21503;SDS011;10913;51.992;9.228;2023-09-19T08:25:33;5.30;;;2.15;;
21503;SDS011;10913;51.992;9.228;2023-09-19T08:27:59;6.13;;;1.95;;
21503;SDS011;10913;51.992;9.228;2023-09-19T08:30:28;4.47;;;1.83;;
21503;SDS011;10913;51.992;9.228;2023-09-19T08:32:58;7.03;;;2.05;;
21503;SDS011;10913;51.992;9.228;2023-09-19T08:35:25;4.70;;;1.83;;
21503;SDS011;10913;51.992;9.228;2023-09-19T08:37:50;7.55;;;2.40;;
21503;SDS011;10913;51.992;9.228;2023-09-19T08:40:16;5.88;;;2.20;;
21503;SDS011;10913;51.992;9.228;2023-09-19T08:42:49;6.18;;;2.13;;
21503;SDS011;10913;51.992;9.228;2023-09-19T08:45:21;6.50;;;2.25;;
21503;SDS011;10913;51.992;9.228;2023-09-19T08:50:28;7.15;;;2.08;;
21503;SDS011;10913;51.992;9.228;2023-09-19T08:52:55;9.52;;;2.40;;
21503;SDS011;10913;51.992;9.228;2023-09-19T08:55:26;6.47;;;2.38;;
21503;SDS011;10913;51.992;9.228;2023-09-19T08:57:57;12.20;;;2.25;;
21503;SDS011;10913;51.992;9.228;2023-09-19T09:00:27;5.43;;;2.17;;
21503;SDS011;10913;51.992;9.228;2023-09-19T09:02:53;5.88;;;2.05;;
21503;SDS011;10913;51.992;9.228;2023-09-19T09:05:20;5.25;;;2.05;;
21503;SDS011;10913;51.992;9.228;2023-09-19T09:07:48;4.13;;;1.90;;
21503;SDS011;10913;51.992;9.228;2023-09-19T09:10:16;3.95;;;1.83;;
21503;SDS011;10913;51.992;9.228;2023-09-19T09:12:43;5.15;;;1.73;;
21503;SDS011;10913;51.992;9.228;2023-09-19T09:15:09;6.78;;;2.50;;
21503;SDS011;10913;51.992;9.228;2023-09-19T09:17:36;7.05;;;2.33;;
21503;SDS011;10913;51.992;9.228;2023-09-19T09:20:02;4.70;;;2.17;;
21503;SDS011;10913;51.992;9.228;2023-09-19T09:22:30;7.15;;;2.53;;
21503;SDS011;10913;51.992;9.228;2023-09-19T09:24:57;9.82;;;2.38;;
21503;SDS011;10913;51.992;9.228;2023-09-19T09:27:30;6.25;;;2.20;;
21503;SDS011;10913;51.992;9.228;2023-09-19T09:29:57;7.13;;;2.20;;
21503;SDS011;10913;51.992;9.228;2023-09-19T09:35:01;7.50;;;2.03;;
21503;SDS011;10913;51.992;9.228;2023-09-19T09:37:29;5.38;;;1.88;;
21503;SDS011;10913;51.992;9.228;2023-09-19T09:39:59;7.63;;;2.10;;
21503;SDS011;10913;51.992;9.228;2023-09-19T09:42:39;8.50;;;2.28;;
21503;SDS011;10913;51.992;9.228;2023-09-19T09:45:12;7.38;;;2.70;;
21503;SDS011;10913;51.992;9.228;2023-09-19T09:48:00;5.03;;;1.95;;
21503;SDS011;10913;51.992;9.228;2023-09-19T09:50:35;4.97;;;2.15;;
21503;SDS011;10913;51.992;9.228;2023-09-19T09:53:04;6.95;;;2.40;;
21503;SDS011;10913;51.992;9.228;2023-09-19T09:58:52;7.85;;;2.53;;
21503;SDS011;10913;51.992;9.228;2023-09-19T10:01:20;7.68;;;2.47;;
21503;SDS011;10913;51.992;9.228;2023-09-19T10:03:46;6.70;;;2.35;;
21503;SDS011;10913;51.992;9.228;2023-09-19T10:06:14;7.38;;;2.28;;
21503;SDS011;10913;51.992;9.228;2023-09-19T10:09:06;8.30;;;3.00;;
21503;SDS011;10913;51.992;9.228;2023-09-19T10:11:39;8.75;;;2.42;;
21503;SDS011;10913;51.992;9.228;2023-09-19T10:14:08;8.85;;;2.70;;
21503;SDS011;10913;51.992;9.228;2023-09-19T10:16:38;7.07;;;2.20;;
21503;SDS011;10913;51.992;9.228;2023-09-19T10:19:09;8.32;;;2.50;;
21503;SDS011;10913;51.992;9.228;2023-09-19T10:21:35;6.25;;;2.25;;
21503;SDS011;10913;51.992;9.228;2023-09-19T10:24:01;7.82;;;2.50;;
21503;SDS011;10913;51.992;9.228;2023-09-19T10:26:29;6.68;;;2.25;;
21503;SDS011;10913;51.992;9.228;2023-09-19T10:28:57;8.38;;;2.63;;
21503;SDS011;10913;51.992;9.228;2023-09-19T10:31:25;5.63;;;2.33;;
21503;SDS011;10913;51.992;9.228;2023-09-19T10:33:52;6.35;;;2.47;;
21503;SDS011;10913;51.992;9.228;2023-09-19T10:36:20;5.47;;;2.35;;
21503;SDS011;10913;51.992;9.228;2023-09-19T10:38:50;5.68;;;2.55;;
21503;SDS011;10913;51.992;9.228;2023-09-19T10:41:21;7.13;;;2.38;;
21503;SDS011;10913;51.992;9.228;2023-09-19T10:43:48;4.25;;;2.40;;
21503;SDS011;10913;51.992;9.228;2023-09-19T10:46:13;7.60;;;2.45;;
21503;SDS011;10913;51.992;9.228;2023-09-19T10:48:40;6.55;;;2.22;;
21503;SDS011;10913;51.992;9.228;2023-09-19T10:51:19;7.65;;;2.42;;
21503;SDS011;10913;51.992;9.228;2023-09-19T10:53:51;10.88;;;2.80;;
21503;SDS011;10913;51.992;9.228;2023-09-19T10:56:19;7.10;;;2.38;;
21503;SDS011;10913;51.992;9.228;2023-09-19T11:01:40;6.07;;;2.38;;
21503;SDS011;10913;51.992;9.228;2023-09-19T11:09:54;6.50;;;2.67;;
21503;SDS011;10913;51.992;9.228;2023-09-19T11:14:56;7.15;;;2.60;;
21503;SDS011;10913;51.992;9.228;2023-09-19T11:30:33;7.05;;;2.65;;
21503;SDS011;10913;51.992;9.228;2023-09-19T11:43:49;6.40;;;2.20;;
21503;SDS011;10913;51.992;9.228;2023-09-19T11:49:17;7.32;;;2.70;;
21503;SDS011;10913;51.992;9.228;2023-09-19T11:51:48;5.68;;;2.45;;
21503;SDS011;10913;51.992;9.228;2023-09-19T11:54:19;8.30;;;2.45;;
21503;SDS011;10913;51.992;9.228;2023-09-19T11:56:49;6.13;;;2.35;;
21503;SDS011;10913;51.992;9.228;2023-09-19T11:59:25;5.05;;;2.28;;
21503;SDS011;10913;51.992;9.228;2023-09-19T12:01:54;5.07;;;2.10;;
21503;SDS011;10913;51.992;9.228;2023-09-19T12:04:38;6.32;;;2.30;;
21503;SDS011;10913;51.992;9.228;2023-09-19T12:07:10;6.53;;;2.50;;
21503;SDS011;10913;51.992;9.228;2023-09-19T12:09:42;5.70;;;2.45;;
21503;SDS011;10913;51.992;9.228;2023-09-19T12:12:09;8.07;;;2.88;;
21503;SDS011;10913;51.992;9.228;2023-09-19T12:14:41;7.40;;;2.70;;
21503;SDS011;10913;51.992;9.228;2023-09-19T12:17:13;5.88;;;2.30;;
21503;SDS011;10913;51.992;9.228;2023-09-19T12:19:38;9.93;;;2.80;;
21503;SDS011;10913;51.992;9.228;2023-09-19T12:22:04;7.50;;;2.75;;
21503;SDS011;10913;51.992;9.228;2023-09-19T12:24:30;8.55;;;2.60;;
21503;SDS011;10913;51.992;9.228;2023-09-19T12:27:03;6.05;;;2.70;;
21503;SDS011;10913;51.992;9.228;2023-09-19T12:29:30;7.35;;;2.75;;
21503;SDS011;10913;51.992;9.228;2023-09-19T12:31:57;4.90;;;2.33;;
21503;SDS011;10913;51.992;9.228;2023-09-19T12:34:27;6.43;;;2.20;;
21503;SDS011;10913;51.992;9.228;2023-09-19T12:37:13;6.40;;;2.47;;
21503;SDS011;10913;51.992;9.228;2023-09-19T12:39:46;6.82;;;2.42;;
21503;SDS011;10913;51.992;9.228;2023-09-19T12:42:16;7.70;;;2.85;;
21503;SDS011;10913;51.992;9.228;2023-09-19T12:44:44;4.00;;;2.00;;
21503;SDS011;10913;51.992;9.228;2023-09-19T12:47:15;9.00;;;2.70;;
21503;SDS011;10913;51.992;9.228;2023-09-19T12:52:34;7.65;;;2.65;;
21503;SDS011;10913;51.992;9.228;2023-09-19T12:55:03;6.53;;;2.58;;
21503;SDS011;10913;51.992;9.228;2023-09-19T12:57:31;5.18;;;2.60;;
21503;SDS011;10913;51.992;9.228;2023-09-19T13:00:00;7.53;;;2.45;;
21503;SDS011;10913;51.992;9.228;2023-09-19T13:02:26;5.82;;;2.38;;
21503;SDS011;10913;51.992;9.228;2023-09-19T13:04:53;4.68;;;2.50;;
21503;SDS011;10913;51.992;9.228;2023-09-19T13:10:14;5.50;;;2.33;;
21503;SDS011;10913;51.992;9.228;2023-09-19T13:12:41;6.20;;;2.28;;
21503;SDS011;10913;51.992;9.228;2023-09-19T13:15:12;5.40;;;2.20;;
21503;SDS011;10913;51.992;9.228;2023-09-19T13:17:44;5.65;;;2.50;;
21503;SDS011;10913;51.992;9.228;2023-09-19T13:22:57;4.88;;;2.40;;
21503;SDS011;10913;51.992;9.228;2023-09-19T13:25:31;7.63;;;2.17;;
21503;SDS011;10913;51.992;9.228;2023-09-19T13:27:58;8.43;;;2.45;;
21503;SDS011;10913;51.992;9.228;2023-09-19T13:30:28;7.22;;;2.20;;
21503;SDS011;10913;51.992;9.228;2023-09-19T13:33:09;5.18;;;2.47;;
21503;SDS011;10913;51.992;9.228;2023-09-19T13:35:36;4.45;;;2.15;;
21503;SDS011;10913;51.992;9.228;2023-09-19T13:38:03;4.60;;;2.55;;
21503;SDS011;10913;51.992;9.228;2023-09-19T13:40:29;6.65;;;2.45;;
21503;SDS011;10913;51.992;9.228;2023-09-19T13:43:00;5.38;;;2.20;;
21503;SDS011;10913;51.992;9.228;2023-09-19T13:45:25;9.70;;;2.67;;
21503;SDS011;10913;51.992;9.228;2023-09-19T13:47:52;6.10;;;2.35;;
21503;SDS011;10913;51.992;9.228;2023-09-19T13:50:17;6.00;;;2.67;;
21503;SDS011;10913;51.992;9.228;2023-09-19T13:52:48;4.05;;;2.10;;
21503;SDS011;10913;51.992;9.228;2023-09-19T13:55:16;5.40;;;2.15;;
21503;SDS011;10913;51.992;9.228;2023-09-19T13:57:46;4.80;;;2.20;;
21503;SDS011;10913;51.992;9.228;2023-09-19T14:00:14;7.47;;;2.50;;
21503;SDS011;10913;51.992;9.228;2023-09-19T14:02:41;6.68;;;2.50;;
21503;SDS011;10913;51.992;9.228;2023-09-19T14:05:09;5.80;;;2.10;;
21503;SDS011;10913;51.992;9.228;2023-09-19T14:07:37;5.18;;;2.20;;
21503;SDS011;10913;51.992;9.228;2023-09-19T14:10:03;6.90;;;2.30;;
21503;SDS011;10913;51.992;9.228;2023-09-19T14:12:29;4.07;;;2.20;;
21503;SDS011;10913;51.992;9.228;2023-09-19T14:14:55;6.53;;;2.50;;
21503;SDS011;10913;51.992;9.228;2023-09-19T14:17:21;2.97;;;1.88;;
21503;SDS011;10913;51.992;9.228;2023-09-19T14:19:46;5.53;;;2.10;;
21503;SDS011;10913;51.992;9.228;2023-09-19T14:22:12;3.58;;;1.90;;
21503;SDS011;10913;51.992;9.228;2023-09-19T14:24:39;6.00;;;2.20;;
21503;SDS011;10913;51.992;9.228;2023-09-19T14:27:06;5.95;;;2.20;;
21503;SDS011;10913;51.992;9.228;2023-09-19T14:29:34;6.30;;;1.95;;
21503;SDS011;10913;51.992;9.228;2023-09-19T14:31:59;6.38;;;2.30;;
21503;SDS011;10913;51.992;9.228;2023-09-19T14:34:24;4.88;;;1.77;;
21503;SDS011;10913;51.992;9.228;2023-09-19T14:36:50;6.35;;;2.10;;
21503;SDS011;10913;51.992;9.228;2023-09-19T14:39:15;5.95;;;2.13;;
21503;SDS011;10913;51.992;9.228;2023-09-19T14:41:41;5.28;;;2.38;;
21503;SDS011;10913;51.992;9.228;2023-09-19T14:44:06;5.60;;;2.00;;
21503;SDS011;10913;51.992;9.228;2023-09-19T14:46:32;5.20;;;2.20;;
21503;SDS011;10913;51.992;9.228;2023-09-19T14:48:58;4.15;;;1.83;;
21503;SDS011;10913;51.992;9.228;2023-09-19T14:51:29;3.00;;;1.60;;
21503;SDS011;10913;51.992;9.228;2023-09-19T14:53:55;7.40;;;2.20;;
21503;SDS011;10913;51.992;9.228;2023-09-19T14:56:20;8.48;;;2.95;;
21503;SDS011;10913;51.992;9.228;2023-09-19T14:58:48;3.92;;;1.85;;
21503;SDS011;10913;51.992;9.228;2023-09-19T15:01:14;4.53;;;1.88;;
21503;SDS011;10913;51.992;9.228;2023-09-19T15:03:40;6.05;;;1.98;;
21503;SDS011;10913;51.992;9.228;2023-09-19T15:06:10;5.63;;;2.03;;
21503;SDS011;10913;51.992;9.228;2023-09-19T15:08:44;3.45;;;1.77;;
21503;SDS011;10913;51.992;9.228;2023-09-19T15:11:12;5.65;;;2.30;;
21503;SDS011;10913;51.992;9.228;2023-09-19T15:13:42;4.47;;;1.98;;
21503;SDS011;10913;51.992;9.228;2023-09-19T15:16:09;5.53;;;1.75;;
21503;SDS011;10913;51.992;9.228;2023-09-19T15:18:38;4.00;;;1.88;;
21503;SDS011;10913;51.992;9.228;2023-09-19T15:23:56;4.85;;;2.10;;
21503;SDS011;10913;51.992;9.228;2023-09-19T15:26:22;3.45;;;1.92;;
21503;SDS011;10913;51.992;9.228;2023-09-19T15:28:47;4.90;;;2.20;;
21503;SDS011;10913;51.992;9.228;2023-09-19T15:31:13;6.68;;;2.65;;
21503;SDS011;10913;51.992;9.228;2023-09-19T15:33:39;4.55;;;1.90;;
21503;SDS011;10913;51.992;9.228;2023-09-19T15:36:08;3.88;;;2.03;;
21503;SDS011;10913;51.992;9.228;2023-09-19T15:41:36;3.42;;;1.73;;
21503;SDS011;10913;51.992;9.228;2023-09-19T15:44:03;6.07;;;1.92;;
21503;SDS011;10913;51.992;9.228;2023-09-19T15:46:32;5.13;;;2.10;;
21503;SDS011;10913;51.992;9.228;2023-09-19T15:49:01;4.60;;;1.90;;
21503;SDS011;10913;51.992;9.228;2023-09-19T15:51:27;3.65;;;2.00;;
21503;SDS011;10913;51.992;9.228;2023-09-19T15:53:53;5.70;;;1.88;;
21503;SDS011;10913;51.992;9.228;2023-09-19T15:56:21;4.43;;;2.15;;
21503;SDS011;10913;51.992;9.228;2023-09-19T15:58:48;5.50;;;2.00;;
21503;SDS011;10913;51.992;9.228;2023-09-19T16:01:14;4.55;;;1.83;;
21503;SDS011;10913;51.992;9.228;2023-09-19T16:03:42;4.40;;;2.22;;
21503;SDS011;10913;51.992;9.228;2023-09-19T16:06:11;4.45;;;2.10;;
21503;SDS011;10913;51.992;9.228;2023-09-19T16:08:41;4.78;;;2.10;;
21503;SDS011;10913;51.992;9.228;2023-09-19T16:11:11;5.23;;;1.90;;
21503;SDS011;10913;51.992;9.228;2023-09-19T16:13:37;4.07;;;2.05;;
21503;SDS011;10913;51.992;9.228;2023-09-19T16:16:04;2.80;;;1.95;;
21503;SDS011;10913;51.992;9.228;2023-09-19T16:18:29;5.03;;;2.00;;
21503;SDS011;10913;51.992;9.228;2023-09-19T16:21:01;6.53;;;2.13;;
21503;SDS011;10913;51.992;9.228;2023-09-19T16:23:28;4.75;;;1.90;;
21503;SDS011;10913;51.992;9.228;2023-09-19T16:26:02;7.88;;;2.38;;